sensor_id;sensor_type;location;lat;lon;timestamp;temperature;humidity
81895;DHT22;71358;45.642;13.758;2024-01-25T11:55:08;20.90;48.00
81895;DHT22;71358;45.642;13.758;2024-01-25T11:57:53;20.90;48.00
81895;DHT22;71358;45.642;13.758;2024-01-25T12:00:37;20.90;48.00
81895;DHT22;71358;45.642;13.758;2024-01-25T12:03:22;20.90;48.00
81895;DHT22;71358;45.642;13.758;2024-01-25T12:06:07;21.00;48.00
81895;DHT22;71358;45.642;13.758;2024-01-25T12:08:53;20.90;48.00
81895;DHT22;71358;45.642;13.758;2024-01-25T12:11:39;21.00;47.90
81895;DHT22;71358;45.642;13.758;2024-01-25T12:14:24;21.00;47.90
81895;DHT22;71358;45.642;13.758;2024-01-25T12:17:09;21.00;47.90
81895;DHT22;71358;45.642;13.758;2024-01-25T12:19:57;21.00;47.90
81895;DHT22;71358;45.642;13.758;2024-01-25T12:22:42;21.00;47.90
81895;DHT22;71358;45.642;13.758;2024-01-25T12:25:28;21.00;48.00
81895;DHT22;71358;45.642;13.758;2024-01-25T12:28:12;21.00;48.10
81895;DHT22;71358;45.642;13.758;2024-01-25T12:30:59;21.00;48.30
81895;DHT22;71358;45.642;13.758;2024-01-25T12:33:44;21.00;48.40
81895;DHT22;71358;45.642;13.758;2024-01-25T12:36:28;21.00;48.50
81895;DHT22;71358;45.642;13.758;2024-01-25T12:39:13;21.00;48.60
81895;DHT22;71358;45.642;13.758;2024-01-25T12:41:58;21.00;48.80
81895;DHT22;71358;45.642;13.758;2024-01-25T12:44:43;21.00;48.90
81895;DHT22;71358;45.642;13.758;2024-01-25T12:47:27;21.00;48.90
81895;DHT22;71358;45.642;13.758;2024-01-25T12:50:12;21.00;49.00
81895;DHT22;71358;45.642;13.758;2024-01-25T12:52:56;21.00;49.00
81895;DHT22;71358;45.642;13.758;2024-01-25T12:55:43;21.00;49.10
81895;DHT22;71358;45.642;13.758;2024-01-25T12:58:27;21.00;49.10
81895;DHT22;71358;45.642;13.758;2024-01-25T13:01:11;21.00;49.20
81895;DHT22;71358;45.642;13.758;2024-01-25T13:03:56;21.00;49.30
81895;DHT22;71358;45.642;13.758;2024-01-25T13:06:41;21.00;49.40
81895;DHT22;71358;45.642;13.758;2024-01-25T13:09:25;21.00;49.60
81895;DHT22;71358;45.642;13.758;2024-01-25T13:12:10;21.00;49.70
81895;DHT22;71358;45.642;13.758;2024-01-25T13:14:55;21.00;49.70
81895;DHT22;71358;45.642;13.758;2024-01-25T13:17:39;21.00;49.70
81895;DHT22;71358;45.642;13.758;2024-01-25T13:20:24;21.00;49.80
81895;DHT22;71358;45.642;13.758;2024-01-25T13:23:08;21.10;49.80
81895;DHT22;71358;45.642;13.758;2024-01-25T13:25:53;21.10;49.80
81895;DHT22;71358;45.642;13.758;2024-01-25T13:28:37;21.10;49.80
81895;DHT22;71358;45.642;13.758;2024-01-25T13:31:22;21.10;49.80
81895;DHT22;71358;45.642;13.758;2024-01-25T13:34:07;21.10;49.80
81895;DHT22;71358;45.642;13.758;2024-01-25T13:36:51;21.10;49.80
81895;DHT22;71358;45.642;13.758;2024-01-25T13:39:36;21.10;49.80
81895;DHT22;71358;45.642;13.758;2024-01-25T13:42:21;21.10;49.80
81895;DHT22;71358;45.642;13.758;2024-01-25T13:45:07;21.10;49.80
81895;DHT22;71358;45.642;13.758;2024-01-25T13:47:51;21.10;50.50
81895;DHT22;71358;45.642;13.758;2024-01-25T13:50:36;21.10;49.80
81895;DHT22;71358;45.642;13.758;2024-01-25T13:53:20;21.20;49.80
81895;DHT22;71358;45.642;13.758;2024-01-25T13:56:05;21.20;49.70
81895;DHT22;71358;45.642;13.758;2024-01-25T13:58:49;21.20;49.60
81895;DHT22;71358;45.642;13.758;2024-01-25T14:01:34;21.20;49.60
81895;DHT22;71358;45.642;13.758;2024-01-25T14:04:18;21.20;49.50
81895;DHT22;71358;45.642;13.758;2024-01-25T14:07:03;21.20;49.50
81895;DHT22;71358;45.642;13.758;2024-01-25T14:09:48;21.20;49.40
81895;DHT22;71358;45.642;13.758;2024-01-25T14:12:32;21.20;49.50
81895;DHT22;71358;45.642;13.758;2024-01-25T14:15:17;21.20;49.50
81895;DHT22;71358;45.642;13.758;2024-01-25T14:18:01;21.20;49.50
81895;DHT22;71358;45.642;13.758;2024-01-25T14:20:46;21.20;49.40
81895;DHT22;71358;45.642;13.758;2024-01-25T14:23:31;21.30;49.50
81895;DHT22;71358;45.642;13.758;2024-01-25T14:26:15;21.30;49.50
81895;DHT22;71358;45.642;13.758;2024-01-25T14:29:00;21.30;49.40
81895;DHT22;71358;45.642;13.758;2024-01-25T14:31:44;21.30;49.40
81895;DHT22;71358;45.642;13.758;2024-01-25T14:34:29;21.30;49.40
81895;DHT22;71358;45.642;13.758;2024-01-25T14:37:13;21.30;49.40
81895;DHT22;71358;45.642;13.758;2024-01-25T14:39:58;21.30;49.40
81895;DHT22;71358;45.642;13.758;2024-01-25T14:42:43;21.30;49.40
81895;DHT22;71358;45.642;13.758;2024-01-25T14:45:28;21.30;49.40
81895;DHT22;71358;45.642;13.758;2024-01-25T14:48:14;21.30;49.40
81895;DHT22;71358;45.642;13.758;2024-01-25T14:50:59;21.20;49.30
81895;DHT22;71358;45.642;13.758;2024-01-25T14:53:43;21.30;49.30
81895;DHT22;71358;45.642;13.758;2024-01-25T14:56:28;21.30;49.30
81895;DHT22;71358;45.642;13.758;2024-01-25T14:59:13;21.30;49.30
81895;DHT22;71358;45.642;13.758;2024-01-25T15:01:57;21.20;49.30
81895;DHT22;71358;45.642;13.758;2024-01-25T15:04:42;21.20;49.30
81895;DHT22;71358;45.642;13.758;2024-01-25T15:07:26;21.20;49.20
81895;DHT22;71358;45.642;13.758;2024-01-25T15:10:11;21.20;49.20
81895;DHT22;71358;45.642;13.758;2024-01-25T15:12:55;21.30;49.10
81895;DHT22;71358;45.642;13.758;2024-01-25T15:15:43;21.30;49.10
81895;DHT22;71358;45.642;13.758;2024-01-25T15:18:28;21.30;49.00
81895;DHT22;71358;45.642;13.758;2024-01-25T15:21:12;21.30;49.00
81895;DHT22;71358;45.642;13.758;2024-01-25T15:23:57;21.40;49.00
81895;DHT22;71358;45.642;13.758;2024-01-25T15:26:42;21.40;48.90
81895;DHT22;71358;45.642;13.758;2024-01-25T15:29:27;21.40;48.80
81895;DHT22;71358;45.642;13.758;2024-01-25T15:32:11;21.40;48.80
81895;DHT22;71358;45.642;13.758;2024-01-25T15:34:56;21.40;48.70
81895;DHT22;71358;45.642;13.758;2024-01-25T15:37:40;21.40;48.70
81895;DHT22;71358;45.642;13.758;2024-01-25T15:40:26;21.40;48.70
81895;DHT22;71358;45.642;13.758;2024-01-25T15:43:10;21.50;48.70
81895;DHT22;71358;45.642;13.758;2024-01-25T15:45:55;21.50;48.60
81895;DHT22;71358;45.642;13.758;2024-01-25T15:48:40;21.50;48.50
81895;DHT22;71358;45.642;13.758;2024-01-25T15:51:24;21.50;48.60
81895;DHT22;71358;45.642;13.758;2024-01-25T15:54:09;21.50;48.60
81895;DHT22;71358;45.642;13.758;2024-01-25T15:56:53;21.50;48.50
81895;DHT22;71358;45.642;13.758;2024-01-25T15:59:38;21.50;48.50
81895;DHT22;71358;45.642;13.758;2024-01-25T16:02:25;21.60;48.50
81895;DHT22;71358;45.642;13.758;2024-01-25T16:05:10;21.60;48.50
81895;DHT22;71358;45.642;13.758;2024-01-25T16:07:58;21.60;48.50
81895;DHT22;71358;45.642;13.758;2024-01-25T16:10:42;21.60;48.40
81895;DHT22;71358;45.642;13.758;2024-01-25T16:13:27;21.60;48.40
81895;DHT22;71358;45.642;13.758;2024-01-25T16:16:12;21.60;48.40
81895;DHT22;71358;45.642;13.758;2024-01-25T16:18:56;21.70;48.30
81895;DHT22;71358;45.642;13.758;2024-01-25T16:21:41;21.70;48.30
81895;DHT22;71358;45.642;13.758;2024-01-25T16:24:26;21.70;48.30
81895;DHT22;71358;45.642;13.758;2024-01-25T16:27:10;21.70;48.30
81895;DHT22;71358;45.642;13.758;2024-01-25T16:29:55;21.70;48.20
81895;DHT22;71358;45.642;13.758;2024-01-25T16:32:39;21.80;48.30
81895;DHT22;71358;45.642;13.758;2024-01-25T16:35:24;21.80;48.40
81895;DHT22;71358;45.642;13.758;2024-01-25T16:38:09;21.80;48.40
81895;DHT22;71358;45.642;13.758;2024-01-25T16:40:53;21.80;48.50
81895;DHT22;71358;45.642;13.758;2024-01-25T16:43:38;21.80;48.50
81895;DHT22;71358;45.642;13.758;2024-01-25T16:46:23;21.80;48.60
81895;DHT22;71358;45.642;13.758;2024-01-25T16:49:07;21.80;48.60
81895;DHT22;71358;45.642;13.758;2024-01-25T16:51:52;21.90;48.80
81895;DHT22;71358;45.642;13.758;2024-01-25T16:54:36;21.90;48.90
81895;DHT22;71358;45.642;13.758;2024-01-25T16:57:21;21.90;49.00
81895;DHT22;71358;45.642;13.758;2024-01-25T17:00:06;21.90;48.90
81895;DHT22;71358;45.642;13.758;2024-01-25T17:02:50;21.90;48.90
81895;DHT22;71358;45.642;13.758;2024-01-25T17:05:35;21.90;48.90
81895;DHT22;71358;45.642;13.758;2024-01-25T17:08:19;22.00;48.90
81895;DHT22;71358;45.642;13.758;2024-01-25T17:11:04;22.00;48.80
81895;DHT22;71358;45.642;13.758;2024-01-25T17:13:49;22.00;48.80
81895;DHT22;71358;45.642;13.758;2024-01-25T17:16:33;22.00;48.70
81895;DHT22;71358;45.642;13.758;2024-01-25T17:19:18;22.00;48.70
81895;DHT22;71358;45.642;13.758;2024-01-25T17:22:02;22.00;48.60
81895;DHT22;71358;45.642;13.758;2024-01-25T17:24:47;22.00;48.50
81895;DHT22;71358;45.642;13.758;2024-01-25T17:27:31;22.10;48.50
81895;DHT22;71358;45.642;13.758;2024-01-25T17:30:16;22.10;48.50
81895;DHT22;71358;45.642;13.758;2024-01-25T17:33:01;22.10;48.40
81895;DHT22;71358;45.642;13.758;2024-01-25T17:35:46;22.10;48.40
81895;DHT22;71358;45.642;13.758;2024-01-25T17:38:32;22.10;48.30
81895;DHT22;71358;45.642;13.758;2024-01-25T17:41:21;22.10;48.30
81895;DHT22;71358;45.642;13.758;2024-01-25T17:44:05;22.10;48.90
81895;DHT22;71358;45.642;13.758;2024-01-25T17:46:50;22.20;48.20
81895;DHT22;71358;45.642;13.758;2024-01-25T17:49:34;22.20;48.20
81895;DHT22;71358;45.642;13.758;2024-01-25T17:52:19;22.20;48.10
81895;DHT22;71358;45.642;13.758;2024-01-25T17:55:04;22.20;48.10
81895;DHT22;71358;45.642;13.758;2024-01-25T17:57:49;22.20;48.00
81895;DHT22;71358;45.642;13.758;2024-01-25T18:00:33;22.20;48.00
81895;DHT22;71358;45.642;13.758;2024-01-25T18:03:18;22.20;48.00
81895;DHT22;71358;45.642;13.758;2024-01-25T18:06:03;22.30;48.00
81895;DHT22;71358;45.642;13.758;2024-01-25T18:08:48;22.30;48.00
81895;DHT22;71358;45.642;13.758;2024-01-25T18:11:32;22.30;48.00
81895;DHT22;71358;45.642;13.758;2024-01-25T18:14:17;22.30;48.00
81895;DHT22;71358;45.642;13.758;2024-01-25T18:17:01;22.30;47.90
81895;DHT22;71358;45.642;13.758;2024-01-25T18:19:46;22.30;47.90
81895;DHT22;71358;45.642;13.758;2024-01-25T18:22:31;22.30;47.90
81895;DHT22;71358;45.642;13.758;2024-01-25T18:25:15;22.30;47.60
81895;DHT22;71358;45.642;13.758;2024-01-25T18:28:00;22.30;47.60
81895;DHT22;71358;45.642;13.758;2024-01-25T18:30:44;22.30;47.90
81895;DHT22;71358;45.642;13.758;2024-01-25T18:33:29;22.30;47.90
81895;DHT22;71358;45.642;13.758;2024-01-25T18:36:14;22.40;47.90
81895;DHT22;71358;45.642;13.758;2024-01-25T18:38:58;22.40;47.90
81895;DHT22;71358;45.642;13.758;2024-01-25T18:41:43;22.40;47.90
81895;DHT22;71358;45.642;13.758;2024-01-25T18:44:27;22.40;47.90
81895;DHT22;71358;45.642;13.758;2024-01-25T18:47:12;22.40;47.90
81895;DHT22;71358;45.642;13.758;2024-01-25T18:49:58;22.40;47.90
81895;DHT22;71358;45.642;13.758;2024-01-25T18:52:44;22.50;47.90
81895;DHT22;71358;45.642;13.758;2024-01-25T18:55:29;22.50;47.90
81895;DHT22;71358;45.642;13.758;2024-01-25T18:58:14;22.50;47.90
81895;DHT22;71358;45.642;13.758;2024-01-25T19:00:59;22.50;48.00
81895;DHT22;71358;45.642;13.758;2024-01-25T19:03:43;22.50;48.00
81895;DHT22;71358;45.642;13.758;2024-01-25T19:06:32;22.50;48.10
81895;DHT22;71358;45.642;13.758;2024-01-25T19:09:17;22.50;48.10
81895;DHT22;71358;45.642;13.758;2024-01-25T19:12:02;22.50;48.20
81895;DHT22;71358;45.642;13.758;2024-01-25T19:14:46;22.50;48.20
81895;DHT22;71358;45.642;13.758;2024-01-25T19:17:31;22.60;48.40
81895;DHT22;71358;45.642;13.758;2024-01-25T19:20:16;22.60;48.40
81895;DHT22;71358;45.642;13.758;2024-01-25T19:23:01;22.60;48.50
81895;DHT22;71358;45.642;13.758;2024-01-25T19:25:45;22.60;48.50
81895;DHT22;71358;45.642;13.758;2024-01-25T19:28:30;22.60;48.50
81895;DHT22;71358;45.642;13.758;2024-01-25T19:31:15;22.60;48.40
81895;DHT22;71358;45.642;13.758;2024-01-25T19:34:00;22.60;48.40
81895;DHT22;71358;45.642;13.758;2024-01-25T19:36:45;22.60;48.40
81895;DHT22;71358;45.642;13.758;2024-01-25T19:39:29;22.60;48.40
81895;DHT22;71358;45.642;13.758;2024-01-25T19:42:14;22.70;48.40
81895;DHT22;71358;45.642;13.758;2024-01-25T19:44:58;22.70;48.30
81895;DHT22;71358;45.642;13.758;2024-01-25T19:47:43;22.70;48.20
81895;DHT22;71358;45.642;13.758;2024-01-25T19:50:28;22.70;48.20
81895;DHT22;71358;45.642;13.758;2024-01-25T19:53:12;22.70;48.20
81895;DHT22;71358;45.642;13.758;2024-01-25T19:55:57;22.70;48.10
81895;DHT22;71358;45.642;13.758;2024-01-25T19:58:43;22.70;48.10
81895;DHT22;71358;45.642;13.758;2024-01-25T20:01:28;22.70;48.00
81895;DHT22;71358;45.642;13.758;2024-01-25T20:04:13;22.70;48.00
81895;DHT22;71358;45.642;13.758;2024-01-25T20:06:58;22.70;48.00
81895;DHT22;71358;45.642;13.758;2024-01-25T20:09:42;22.70;48.10
81895;DHT22;71358;45.642;13.758;2024-01-25T20:12:27;22.70;48.10
81895;DHT22;71358;45.642;13.758;2024-01-25T20:15:11;22.80;48.10
81895;DHT22;71358;45.642;13.758;2024-01-25T20:17:56;22.70;48.00
81895;DHT22;71358;45.642;13.758;2024-01-25T20:20:41;22.70;48.00
81895;DHT22;71358;45.642;13.758;2024-01-25T20:23:25;22.80;48.00
81895;DHT22;71358;45.642;13.758;2024-01-25T20:26:10;22.70;47.90
81895;DHT22;71358;45.642;13.758;2024-01-25T20:28:56;22.80;48.00
81895;DHT22;71358;45.642;13.758;2024-01-25T20:31:41;22.80;48.00
81895;DHT22;71358;45.642;13.758;2024-01-25T20:34:25;22.70;47.80
81895;DHT22;71358;45.642;13.758;2024-01-25T20:37:10;22.80;47.80
81895;DHT22;71358;45.642;13.758;2024-01-25T20:39:55;22.80;47.80
81895;DHT22;71358;45.642;13.758;2024-01-25T20:42:39;22.80;47.80
81895;DHT22;71358;45.642;13.758;2024-01-25T20:45:24;22.80;47.70
81895;DHT22;71358;45.642;13.758;2024-01-25T20:48:08;22.80;47.70
81895;DHT22;71358;45.642;13.758;2024-01-25T20:50:53;22.70;47.70
81895;DHT22;71358;45.642;13.758;2024-01-25T20:53:37;22.80;47.60
81895;DHT22;71358;45.642;13.758;2024-01-25T20:56:22;22.70;47.60
81895;DHT22;71358;45.642;13.758;2024-01-25T20:59:07;22.80;47.70
81895;DHT22;71358;45.642;13.758;2024-01-25T21:01:54;22.70;47.70
81895;DHT22;71358;45.642;13.758;2024-01-25T21:04:38;22.80;47.90
81895;DHT22;71358;45.642;13.758;2024-01-25T21:07:25;22.80;48.00
81895;DHT22;71358;45.642;13.758;2024-01-25T21:10:10;22.70;47.80
81895;DHT22;71358;45.642;13.758;2024-01-25T21:12:55;22.70;47.90
81895;DHT22;71358;45.642;13.758;2024-01-25T21:15:39;22.70;47.90
81895;DHT22;71358;45.642;13.758;2024-01-25T21:18:24;22.70;47.80
81895;DHT22;71358;45.642;13.758;2024-01-25T21:21:09;22.70;47.70
81895;DHT22;71358;45.642;13.758;2024-01-25T21:23:57;22.70;47.70
81895;DHT22;71358;45.642;13.758;2024-01-25T21:26:41;22.70;47.70
81895;DHT22;71358;45.642;13.758;2024-01-25T21:29:26;22.70;47.70
81895;DHT22;71358;45.642;13.758;2024-01-25T21:32:10;22.70;47.70
81895;DHT22;71358;45.642;13.758;2024-01-25T21:34:55;22.70;47.70
81895;DHT22;71358;45.642;13.758;2024-01-25T21:37:39;22.70;47.70
81895;DHT22;71358;45.642;13.758;2024-01-25T21:40:24;22.70;47.70
81895;DHT22;71358;45.642;13.758;2024-01-25T21:43:10;22.70;47.70
81895;DHT22;71358;45.642;13.758;2024-01-25T21:45:54;22.70;47.70
81895;DHT22;71358;45.642;13.758;2024-01-25T21:48:39;22.70;47.70
81895;DHT22;71358;45.642;13.758;2024-01-25T21:51:23;22.70;47.70
81895;DHT22;71358;45.642;13.758;2024-01-25T21:54:08;22.70;47.70
81895;DHT22;71358;45.642;13.758;2024-01-25T21:56:53;22.70;47.60
81895;DHT22;71358;45.642;13.758;2024-01-25T21:59:37;22.70;47.40
81895;DHT22;71358;45.642;13.758;2024-01-25T22:02:22;22.70;47.30
81895;DHT22;71358;45.642;13.758;2024-01-25T22:05:07;22.70;47.20
81895;DHT22;71358;45.642;13.758;2024-01-25T22:07:54;22.70;47.10
81895;DHT22;71358;45.642;13.758;2024-01-25T22:10:39;22.60;47.10
81895;DHT22;71358;45.642;13.758;2024-01-25T22:13:23;22.60;47.70
81895;DHT22;71358;45.642;13.758;2024-01-25T22:16:08;22.70;47.00
81895;DHT22;71358;45.642;13.758;2024-01-25T22:18:53;22.60;46.80
81895;DHT22;71358;45.642;13.758;2024-01-25T22:21:37;22.60;46.80
81895;DHT22;71358;45.642;13.758;2024-01-25T22:24:22;22.60;46.70
81895;DHT22;71358;45.642;13.758;2024-01-25T22:27:06;22.60;46.60
81895;DHT22;71358;45.642;13.758;2024-01-25T22:29:52;22.60;46.50
81895;DHT22;71358;45.642;13.758;2024-01-25T22:32:37;22.60;46.50
81895;DHT22;71358;45.642;13.758;2024-01-25T22:35:21;22.60;46.40
81895;DHT22;71358;45.642;13.758;2024-01-25T22:38:06;22.60;46.40
81895;DHT22;71358;45.642;13.758;2024-01-25T22:40:50;22.60;46.30
81895;DHT22;71358;45.642;13.758;2024-01-25T22:43:35;22.60;46.30
81895;DHT22;71358;45.642;13.758;2024-01-25T22:46:20;22.60;46.30
81895;DHT22;71358;45.642;13.758;2024-01-25T22:49:04;22.60;46.30
81895;DHT22;71358;45.642;13.758;2024-01-25T22:51:50;22.60;46.20
81895;DHT22;71358;45.642;13.758;2024-01-25T22:54:35;22.50;46.20
81895;DHT22;71358;45.642;13.758;2024-01-25T22:57:19;22.50;46.20
81895;DHT22;71358;45.642;13.758;2024-01-25T23:00:04;22.50;46.20
81895;DHT22;71358;45.642;13.758;2024-01-25T23:02:52;22.50;46.30
81895;DHT22;71358;45.642;13.758;2024-01-25T23:05:37;22.50;46.30
81895;DHT22;71358;45.642;13.758;2024-01-25T23:08:21;22.50;46.30
81895;DHT22;71358;45.642;13.758;2024-01-25T23:11:06;22.50;46.30
81895;DHT22;71358;45.642;13.758;2024-01-25T23:13:50;22.50;46.30
81895;DHT22;71358;45.642;13.758;2024-01-25T23:16:35;22.50;46.20
81895;DHT22;71358;45.642;13.758;2024-01-25T23:19:19;22.50;46.20
81895;DHT22;71358;45.642;13.758;2024-01-25T23:22:05;22.50;46.20
81895;DHT22;71358;45.642;13.758;2024-01-25T23:24:50;22.50;46.20
81895;DHT22;71358;45.642;13.758;2024-01-25T23:27:34;22.50;46.20
81895;DHT22;71358;45.642;13.758;2024-01-25T23:30:19;22.50;46.30
81895;DHT22;71358;45.642;13.758;2024-01-25T23:33:04;22.50;46.30
81895;DHT22;71358;45.642;13.758;2024-01-25T23:35:49;22.50;46.40
81895;DHT22;71358;45.642;13.758;2024-01-25T23:38:33;22.50;46.30
81895;DHT22;71358;45.642;13.758;2024-01-25T23:41:18;22.50;46.20
81895;DHT22;71358;45.642;13.758;2024-01-25T23:44:03;22.50;46.10
81895;DHT22;71358;45.642;13.758;2024-01-25T23:46:47;22.50;46.10
81895;DHT22;71358;45.642;13.758;2024-01-25T23:49:32;22.40;46.00
81895;DHT22;71358;45.642;13.758;2024-01-25T23:52:16;22.40;46.00
81895;DHT22;71358;45.642;13.758;2024-01-25T23:55:01;22.40;46.00
81895;DHT22;71358;45.642;13.758;2024-01-25T23:57:46;22.40;45.90
